Time;durP1;ratioP1;P1;durP2;ratioP2;P2;SDS_P1;SDS_P2;PMS_P1;PMS_P2;Temp;Humidity;BMP_temperature;BMP_pressure;BME280_temperature;BME280_humidity;BME280_pressure;Samples;Min_cycle;Max_cycle;Signal;HPM_P1;HPM_P2
2022/09/23 00:00:17;;;;;;;39.78;19.23;;;;;;;;;;5032607;28;20401;-74
2022/09/23 00:02:47;;;;;;;34.42;18.88;;;;;;;;;;5032442;28;20024;-73
2022/09/23 00:05:13;;;;;;;36.45;20.30;;;;;;;;;;5032493;28;20033;-75
2022/09/23 00:07:39;;;;;;;35.72;19.42;;;;;;;;;;5032420;28;20029;-75
2022/09/23 00:10:05;;;;;;;40.25;19.20;;;;;;;;;;5032282;28;20021;-68
2022/09/23 00:12:31;;;;;;;42.28;19.45;;;;;;;;;;5047398;28;20028;-68
2022/09/23 00:14:57;;;;;;;44.55;20.27;;;;;;;;;;5056315;28;20098;-71
2022/09/23 00:17:22;;;;;;;38.97;20.23;;;;;;;;;;5056551;28;20045;-72
2022/09/23 00:19:48;;;;;;;38.88;19.95;;;;;;;;;;5055981;28;20036;-67
2022/09/23 00:22:15;;;;;;;40.95;20.48;;;;;;;;;;5056175;28;20065;-68
2022/09/23 00:24:40;;;;;;;42.28;21.05;;;;;;;;;;5056148;28;20545;-72
2022/09/23 00:27:06;;;;;;;38.33;19.70;;;;;;;;;;5055866;28;20068;-68
2022/09/23 00:29:31;;;;;;;42.88;20.80;;;;;;;;;;5056201;28;20025;-69
2022/09/23 00:31:57;;;;;;;46.75;20.02;;;;;;;;;;5046748;28;20033;-72
2022/09/23 00:34:22;;;;;;;39.88;20.30;;;;;;;;;;5045097;28;20029;-67
2022/09/23 00:36:48;;;;;;;39.40;19.52;;;;;;;;;;5045679;28;20021;-72
2022/09/23 00:39:13;;;;;;;36.75;19.35;;;;;;;;;;5046424;28;20082;-68
2022/09/23 00:41:39;;;;;;;38.70;19.75;;;;;;;;;;5055740;28;20367;-68
2022/09/23 00:44:42;;;;;;;35.58;18.85;;;;;;;;;;5054976;28;20056;-73
2022/09/23 00:47:21;;;;;;;35.08;18.50;;;;;;;;;;5055896;28;20029;-73
2022/09/23 00:49:54;;;;;;;30.33;16.17;;;;;;;;;;5055804;28;20032;-67
2022/09/23 00:52:22;;;;;;;26.77;14.63;;;;;;;;;;5055893;28;20378;-75
2022/09/23 00:54:54;;;;;;;33.63;17.40;;;;;;;;;;5054392;28;20047;-68
2022/09/23 00:57:20;;;;;;;33.53;16.38;;;;;;;;;;5047599;28;20092;-68
2022/09/23 00:59:47;;;;;;;28.73;16.25;;;;;;;;;;5044789;28;20034;-75
2022/09/23 01:02:15;;;;;;;29.42;15.25;;;;;;;;;;5044512;28;20021;-68
2022/09/23 01:04:41;;;;;;;27.13;13.02;;;;;;;;;;5046180;28;20016;-73
2022/09/23 01:07:10;;;;;;;30.58;14.07;;;;;;;;;;5044826;28;20025;-68
2022/09/23 01:09:36;;;;;;;29.80;13.98;;;;;;;;;;5043974;28;20017;-67
2022/09/23 01:12:17;;;;;;;32.17;15.13;;;;;;;;;;5043805;28;20017;-69
2022/09/23 01:15:05;;;;;;;29.48;14.82;;;;;;;;;;5044116;28;20076;-69
2022/09/23 01:17:39;;;;;;;29.13;15.13;;;;;;;;;;5045193;28;20097;-68
2022/09/23 01:20:29;;;;;;;28.60;15.05;;;;;;;;;;5043993;28;20022;-68
2022/09/23 01:23:17;;;;;;;31.15;15.27;;;;;;;;;;5045192;28;20026;-72
2022/09/23 01:26:23;;;;;;;31.77;16.45;;;;;;;;;;5043657;28;20021;-68
2022/09/23 01:29:54;;;;;;;31.70;15.57;;;;;;;;;;5044747;28;20033;-67
2022/09/23 01:32:24;;;;;;;37.42;18.90;;;;;;;;;;4973618;28;20062;-68
2022/09/23 01:35:16;;;;;;;41.08;19.27;;;;;;;;;;4973599;28;20532;-68
2022/09/23 01:38:00;;;;;;;42.95;19.95;;;;;;;;;;4970626;28;20035;-69
2022/09/23 01:40:58;;;;;;;35.67;18.25;;;;;;;;;;4972195;28;20436;-68
2022/09/23 01:43:31;;;;;;;33.28;17.92;;;;;;;;;;4915700;29;20072;-69
2022/09/23 01:45:59;;;;;;;37.28;19.65;;;;;;;;;;4915008;29;20529;-69
2022/09/23 01:48:56;;;;;;;39.03;19.45;;;;;;;;;;4914908;29;20096;-71
2022/09/23 01:51:29;;;;;;;37.50;19.02;;;;;;;;;;4874911;29;20124;-68
2022/09/23 01:54:10;;;;;;;34.33;18.55;;;;;;;;;;4877068;29;20041;-69
2022/09/23 01:56:41;;;;;;;38.03;18.02;;;;;;;;;;4877302;29;20052;-68
2022/09/23 01:59:12;;;;;;;33.58;18.70;;;;;;;;;;4877220;29;20037;-68
2022/09/23 02:01:56;;;;;;;37.53;19.20;;;;;;;;;;4877044;29;20116;-67
2022/09/23 02:04:38;;;;;;;32.88;17.65;;;;;;;;;;4877381;29;20044;-73
2022/09/23 02:07:16;;;;;;;39.38;18.33;;;;;;;;;;4912570;29;20115;-69
2022/09/23 02:09:47;;;;;;;36.28;18.42;;;;;;;;;;4912324;29;20032;-68
2022/09/23 02:12:17;;;;;;;33.58;18.25;;;;;;;;;;4914884;29;20032;-71
2022/09/23 02:14:54;;;;;;;37.83;18.35;;;;;;;;;;4912908;29;20032;-73
2022/09/23 02:17:38;;;;;;;35.88;16.98;;;;;;;;;;4915416;29;20186;-68
2022/09/23 02:20:06;;;;;;;33.78;17.10;;;;;;;;;;4952330;28;20042;-72
2022/09/23 02:22:51;;;;;;;43.97;18.30;;;;;;;;;;4975571;28;20077;-76
2022/09/23 02:25:19;;;;;;;33.53;16.60;;;;;;;;;;4933934;29;20091;-67
2022/09/23 02:27:50;;;;;;;32.97;17.60;;;;;;;;;;4998598;28;20056;-75
2022/09/23 02:30:30;;;;;;;32.15;15.93;;;;;;;;;;5012196;28;20041;-75
2022/09/23 02:33:10;;;;;;;33.00;18.08;;;;;;;;;;5012206;28;20036;-75
2022/09/23 02:35:42;;;;;;;35.60;16.02;;;;;;;;;;5012201;28;20048;-75
2022/09/23 02:38:35;;;;;;;32.17;16.13;;;;;;;;;;5012038;28;20073;-74
2022/09/23 02:41:01;;;;;;;29.05;15.65;;;;;;;;;;5012091;28;20038;-68
2022/09/23 02:43:40;;;;;;;32.28;15.77;;;;;;;;;;5011926;28;20448;-75
2022/09/23 02:46:06;;;;;;;29.80;15.57;;;;;;;;;;5012236;28;20100;-68
2022/09/23 02:48:37;;;;;;;34.47;15.30;;;;;;;;;;5011902;28;20030;-68
2022/09/23 02:51:03;;;;;;;28.73;15.95;;;;;;;;;;5011192;28;20058;-75
2022/09/23 02:53:33;;;;;;;31.55;15.95;;;;;;;;;;5010706;28;20084;-69
2022/09/23 02:56:00;;;;;;;28.63;14.98;;;;;;;;;;5011346;28;20037;-73
2022/09/23 02:58:26;;;;;;;32.30;16.27;;;;;;;;;;5010867;28;20395;-71
2022/09/23 03:01:33;;;;;;;30.40;14.68;;;;;;;;;;5010692;28;20037;-74
2022/09/23 03:04:30;;;;;;;29.80;15.95;;;;;;;;;;5010788;28;20121;-68
2022/09/23 03:07:07;;;;;;;32.28;16.48;;;;;;;;;;5010564;28;20037;-68
2022/09/23 03:09:38;;;;;;;29.38;15.23;;;;;;;;;;5010693;28;20042;-73
2022/09/23 03:12:19;;;;;;;32.53;16.33;;;;;;;;;;5010591;28;20384;-68
2022/09/23 03:14:44;;;;;;;28.30;15.38;;;;;;;;;;5010670;28;20052;-67
2022/09/23 03:17:20;;;;;;;28.20;15.02;;;;;;;;;;5010489;28;20029;-74
2022/09/23 03:20:05;;;;;;;30.70;15.23;;;;;;;;;;5010013;28;20116;-72
2022/09/23 03:22:50;;;;;;;27.90;14.07;;;;;;;;;;5026423;28;20045;-72
2022/09/23 03:25:21;;;;;;;29.92;15.38;;;;;;;;;;5030284;28;20033;-72
2022/09/23 03:27:46;;;;;;;31.52;14.38;;;;;;;;;;5030237;28;20143;-73
2022/09/23 03:30:12;;;;;;;28.23;14.50;;;;;;;;;;5030570;28;20061;-68
2022/09/23 03:32:43;;;;;;;29.92;15.07;;;;;;;;;;5030555;28;20037;-69
2022/09/23 03:35:09;;;;;;;31.70;14.50;;;;;;;;;;5030032;28;20029;-71
2022/09/23 03:37:39;;;;;;;33.20;15.13;;;;;;;;;;5029815;28;20063;-69
2022/09/23 03:40:07;;;;;;;;;;;;;;;;;;5040444;28;20047;-71
2022/09/23 03:42:36;;;;;;;33.60;14.90;;;;;;;;;;5052062;28;20259;-74
2022/09/23 03:45:07;;;;;;;35.40;16.15;;;;;;;;;;5052170;28;20086;-69
2022/09/23 03:47:33;;;;;;;27.83;14.90;;;;;;;;;;5052489;28;20486;-75
2022/09/23 03:49:59;;;;;;;30.42;15.25;;;;;;;;;;5052265;28;20036;-69
2022/09/23 03:52:25;;;;;;;31.05;16.05;;;;;;;;;;5052510;28;20117;-71
2022/09/23 03:54:51;;;;;;;29.02;14.93;;;;;;;;;;5052571;28;20025;-71
2022/09/23 03:57:20;;;;;;;30.17;15.68;;;;;;;;;;5052615;28;20104;-70
2022/09/23 03:59:47;;;;;;;35.72;15.57;;;;;;;;;;5051120;28;20379;-68
2022/09/23 04:02:15;;;;;;;26.30;14.70;;;;;;;;;;5052399;28;20086;-67
2022/09/23 04:04:41;;;;;;;28.90;14.43;;;;;;;;;;5051837;28;20024;-70
2022/09/23 04:07:07;;;;;;;30.73;14.98;;;;;;;;;;5051812;28;20025;-70
2022/09/23 04:09:33;;;;;;;28.23;15.35;;;;;;;;;;5051615;28;20401;-69
2022/09/23 04:11:59;;;;;;;33.63;15.02;;;;;;;;;;5051752;28;20021;-68
2022/09/23 04:14:25;;;;;;;32.03;14.50;;;;;;;;;;5052042;28;20033;-69
2022/09/23 04:16:50;;;;;;;29.05;13.75;;;;;;;;;;5052355;28;20025;-67
2022/09/23 04:19:16;;;;;;;24.92;15.23;;;;;;;;;;5050785;28;20120;-67
2022/09/23 04:21:43;;;;;;;26.58;14.75;;;;;;;;;;5051859;28;20045;-70
2022/09/23 04:24:09;;;;;;;35.20;15.30;;;;;;;;;;5052136;28;20033;-68
2022/09/23 04:26:36;;;;;;;37.15;15.32;;;;;;;;;;5052281;28;20029;-68
2022/09/23 04:29:03;;;;;;;30.02;14.88;;;;;;;;;;5052165;28;20044;-75
2022/09/23 04:31:29;;;;;;;26.50;14.57;;;;;;;;;;5051860;28;20033;-67
2022/09/23 04:33:55;;;;;;;28.95;14.30;;;;;;;;;;5051578;28;20063;-68
2022/09/23 04:36:21;;;;;;;31.58;14.52;;;;;;;;;;5051553;28;20044;-69
2022/09/23 04:38:48;;;;;;;30.38;14.70;;;;;;;;;;5051401;28;20401;-67
2022/09/23 04:41:14;;;;;;;25.60;14.55;;;;;;;;;;5051639;28;20029;-68
2022/09/23 04:43:41;;;;;;;34.67;14.90;;;;;;;;;;5052086;28;20496;-68
2022/09/23 04:46:08;;;;;;;37.03;14.82;;;;;;;;;;5051974;28;20029;-70
2022/09/23 04:48:38;;;;;;;28.17;13.80;;;;;;;;;;5049938;28;20037;-71
2022/09/23 04:51:08;;;;;;;28.92;14.20;;;;;;;;;;5051498;28;20115;-68
2022/09/23 04:53:38;;;;;;;33.13;15.15;;;;;;;;;;5051077;28;20390;-67
2022/09/23 04:56:06;;;;;;;27.52;14.07;;;;;;;;;;5051195;28;20025;-69
2022/09/23 04:58:33;;;;;;;33.83;14.68;;;;;;;;;;5053794;28;20082;-67
2022/09/23 05:01:07;;;;;;;34.63;15.85;;;;;;;;;;5055226;28;20031;-74
2022/09/23 05:03:34;;;;;;;31.52;15.55;;;;;;;;;;5055337;28;20048;-68
2022/09/23 05:06:00;;;;;;;38.15;14.80;;;;;;;;;;5055053;28;20123;-68
2022/09/23 05:08:26;;;;;;;34.05;15.35;;;;;;;;;;5055246;28;20032;-69
2022/09/23 05:10:56;;;;;;;26.27;14.95;;;;;;;;;;5055413;28;20021;-73
2022/09/23 05:13:22;;;;;;;34.42;14.95;;;;;;;;;;5055551;28;20028;-75
2022/09/23 05:15:47;;;;;;;35.03;14.95;;;;;;;;;;5055401;28;20378;-75
2022/09/23 05:18:13;;;;;;;31.77;15.77;;;;;;;;;;5055090;28;20052;-74
2022/09/23 05:20:38;;;;;;;30.35;14.63;;;;;;;;;;5054355;28;20045;-74
2022/09/23 05:23:03;;;;;;;30.45;15.57;;;;;;;;;;5054603;28;20025;-68
2022/09/23 05:25:29;;;;;;;34.75;14.95;;;;;;;;;;5054578;28;20060;-75
2022/09/23 05:27:54;;;;;;;34.22;15.45;;;;;;;;;;5054644;28;20532;-75
2022/09/23 05:30:20;;;;;;;33.50;15.57;;;;;;;;;;5054985;28;20031;-75
2022/09/23 05:32:45;;;;;;;33.00;14.73;;;;;;;;;;5054750;28;20025;-74
2022/09/23 05:35:11;;;;;;;29.80;14.27;;;;;;;;;;5054682;28;20454;-68
2022/09/23 05:37:37;;;;;;;31.83;15.05;;;;;;;;;;5053311;28;20110;-74
2022/09/23 05:40:03;;;;;;;29.27;14.02;;;;;;;;;;5054752;28;20061;-71
2022/09/23 05:42:28;;;;;;;31.58;14.32;;;;;;;;;;5054886;28;20167;-72
2022/09/23 05:44:55;;;;;;;35.40;15.10;;;;;;;;;;5054852;28;20431;-73
2022/09/23 05:47:20;;;;;;;38.10;16.08;;;;;;;;;;5053052;28;20478;-71
2022/09/23 05:49:46;;;;;;;31.27;15.93;;;;;;;;;;5053943;28;20059;-74
2022/09/23 05:52:11;;;;;;;33.58;15.38;;;;;;;;;;5054003;28;20108;-72
2022/09/23 05:54:37;;;;;;;43.35;16.30;;;;;;;;;;5053858;28;20040;-72
2022/09/23 05:57:03;;;;;;;30.30;12.38;;;;;;;;;;5054359;28;20116;-71
2022/09/23 05:59:28;;;;;;;35.53;14.27;;;;;;;;;;5054438;28;20036;-74
2022/09/23 06:01:55;;;;;;;34.65;15.45;;;;;;;;;;5054324;28;20421;-72
2022/09/23 06:04:21;;;;;;;12.23;6.80;;;;;;;;;;5053896;28;20506;-71
2022/09/23 06:06:46;;;;;;;7.75;5.45;;;;;;;;;;5053884;28;20040;-74
2022/09/23 06:09:13;;;;;;;6.43;4.38;;;;;;;;;;5053233;28;20462;-71
2022/09/23 06:11:40;;;;;;;6.38;3.92;;;;;;;;;;5053855;28;20020;-74
2022/09/23 06:14:08;;;;;;;8.27;4.30;;;;;;;;;;5054231;28;20033;-71
2022/09/23 06:16:34;;;;;;;8.35;3.45;;;;;;;;;;5053992;28;20116;-73
2022/09/23 06:19:04;;;;;;;6.93;3.90;;;;;;;;;;5054183;28;20013;-70
2022/09/23 06:21:30;;;;;;;4.47;3.10;;;;;;;;;;5053748;28;20041;-71
2022/09/23 06:23:59;;;;;;;6.90;3.38;;;;;;;;;;5054189;28;20107;-72
2022/09/23 06:26:24;;;;;;;6.63;3.35;;;;;;;;;;5052855;28;20375;-72
2022/09/23 06:28:49;;;;;;;6.97;3.08;;;;;;;;;;5054086;28;20028;-73
2022/09/23 06:31:16;;;;;;;6.65;3.60;;;;;;;;;;5053696;28;20033;-73
2022/09/23 06:33:43;;;;;;;5.10;3.05;;;;;;;;;;5053856;28;20123;-73
2022/09/23 06:36:10;;;;;;;11.32;3.35;;;;;;;;;;5053269;28;20104;-72
2022/09/23 06:38:43;;;;;;;4.97;3.20;;;;;;;;;;5053359;28;20024;-73
2022/09/23 06:41:09;;;;;;;8.27;3.60;;;;;;;;;;5053013;28;20036;-72
2022/09/23 06:43:35;;;;;;;6.25;3.88;;;;;;;;;;5053244;28;20039;-71
2022/09/23 06:46:04;;;;;;;5.55;2.95;;;;;;;;;;5053679;28;20116;-66
2022/09/23 06:48:30;;;;;;;9.18;4.13;;;;;;;;;;5053317;28;20032;-69
2022/09/23 06:51:01;;;;;;;6.85;3.70;;;;;;;;;;5053442;28;20089;-70
2022/09/23 06:53:30;;;;;;;6.80;3.25;;;;;;;;;;5053537;28;20490;-68
2022/09/23 06:56:04;;;;;;;4.40;2.78;;;;;;;;;;5053462;28;20424;-70
2022/09/23 06:58:31;;;;;;;4.45;2.85;;;;;;;;;;5053288;28;20126;-69
2022/09/23 07:01:01;;;;;;;5.70;3.15;;;;;;;;;;5053222;28;20021;-71
2022/09/23 07:03:27;;;;;;;;;;;;;;;;;;5053529;28;20210;-66
2022/09/23 07:05:57;;;;;;;4.72;3.00;;;;;;;;;;5052547;28;19913;-70
2022/09/23 07:08:25;;;;;;;6.97;2.58;;;;;;;;;;5051323;28;20100;-70
2022/09/23 07:10:58;;;;;;;4.30;2.40;;;;;;;;;;5052615;28;20025;-70
2022/09/23 07:13:24;;;;;;;4.63;2.53;;;;;;;;;;5052609;28;20021;-69
2022/09/23 07:15:51;;;;;;;4.38;2.28;;;;;;;;;;5046566;28;20120;-70
2022/09/23 07:18:17;;;;;;;7.78;2.60;;;;;;;;;;5046918;28;20133;-71
2022/09/23 07:20:43;;;;;;;3.17;2.30;;;;;;;;;;5033250;28;20467;-69
2022/09/23 07:23:09;;;;;;;3.33;2.10;;;;;;;;;;5044163;28;20106;-72
2022/09/23 07:25:34;;;;;;;5.45;2.50;;;;;;;;;;5043520;28;20064;-71
2022/09/23 07:28:00;;;;;;;5.47;2.40;;;;;;;;;;5041028;28;20040;-70
2022/09/23 07:30:26;;;;;;;4.60;2.30;;;;;;;;;;5045470;28;20025;-68
2022/09/23 07:32:52;;;;;;;4.47;2.03;;;;;;;;;;5041650;28;20542;-71
2022/09/23 07:35:17;;;;;;;7.00;2.42;;;;;;;;;;5043251;28;20032;-70
2022/09/23 07:37:45;;;;;;;3.90;2.30;;;;;;;;;;5041723;28;20383;-69
2022/09/23 07:40:11;;;;;;;6.60;2.00;;;;;;;;;;5041619;28;20036;-71
2022/09/23 07:42:38;;;;;;;3.35;2.20;;;;;;;;;;5042799;28;20032;-71
2022/09/23 07:45:05;;;;;;;3.88;2.15;;;;;;;;;;5041634;28;20072;-69
2022/09/23 07:47:31;;;;;;;5.85;1.98;;;;;;;;;;5040270;28;20025;-70
2022/09/23 07:49:56;;;;;;;6.18;2.58;;;;;;;;;;5043230;28;20458;-66
2022/09/23 07:52:22;;;;;;;4.32;2.13;;;;;;;;;;5041268;28;20036;-71
2022/09/23 07:54:47;;;;;;;5.95;2.10;;;;;;;;;;5042069;28;20230;-67
2022/09/23 07:57:13;;;;;;;5.47;2.10;;;;;;;;;;5042658;28;20021;-68
2022/09/23 07:59:39;;;;;;;3.55;2.30;;;;;;;;;;5042866;28;20029;-67
2022/09/23 08:02:05;;;;;;;6.50;2.22;;;;;;;;;;5032781;28;20124;-66
2022/09/23 08:04:33;;;;;;;5.97;2.13;;;;;;;;;;5032465;28;20395;-66
2022/09/23 08:07:01;;;;;;;12.93;3.53;;;;;;;;;;5032312;28;20475;-66
2022/09/23 08:09:40;;;;;;;5.20;2.10;;;;;;;;;;5032507;28;20056;-66
2022/09/23 08:12:09;;;;;;;3.55;1.90;;;;;;;;;;5036949;28;20033;-66
2022/09/23 08:14:37;;;;;;;10.25;2.28;;;;;;;;;;5055370;28;20029;-65
2022/09/23 08:17:06;;;;;;;4.60;2.10;;;;;;;;;;5045668;28;20532;-65
2022/09/23 08:19:31;;;;;;;5.68;2.00;;;;;;;;;;5047683;28;20592;-64
2022/09/23 08:21:57;;;;;;;7.32;2.20;;;;;;;;;;5054463;28;20111;-68
2022/09/23 08:24:23;;;;;;;4.82;2.08;;;;;;;;;;5053695;28;20497;-69
2022/09/23 08:26:51;;;;;;;5.65;2.28;;;;;;;;;;5058144;28;20452;-69
2022/09/23 08:29:18;;;;;;;7.70;2.67;;;;;;;;;;5054947;28;20024;-70
2022/09/23 08:31:44;;;;;;;4.07;2.13;;;;;;;;;;5054399;28;20116;-71
2022/09/23 08:34:09;;;;;;;7.15;2.20;;;;;;;;;;5071902;28;20052;-71
2022/09/23 08:36:35;;;;;;;3.45;2.10;;;;;;;;;;5062962;28;20056;-70
2022/09/23 08:39:01;;;;;;;4.40;2.30;;;;;;;;;;5064728;28;20021;-70
2022/09/23 08:41:29;;;;;;;2.90;1.80;;;;;;;;;;5069638;28;20039;-71
2022/09/23 08:43:58;;;;;;;5.45;1.95;;;;;;;;;;5058718;28;20021;-71
2022/09/23 08:46:51;;;;;;;4.15;2.00;;;;;;;;;;5069254;28;20028;-71
2022/09/23 08:49:38;;;;;;;6.07;2.40;;;;;;;;;;5068228;28;20029;-69
2022/09/23 08:52:18;;;;;;;3.78;2.10;;;;;;;;;;5064135;28;20040;-69
2022/09/23 08:54:44;;;;;;;3.97;2.20;;;;;;;;;;5075154;28;20018;-71
2022/09/23 08:57:30;;;;;;;2.60;1.50;;;;;;;;;;5069992;28;20381;-69
2022/09/23 08:59:56;;;;;;;3.83;1.98;;;;;;;;;;5048381;28;20024;-66
2022/09/23 09:02:22;;;;;;;3.67;1.90;;;;;;;;;;5055236;28;20057;-70
2022/09/23 09:05:02;;;;;;;4.30;1.92;;;;;;;;;;5055419;28;20057;-71
2022/09/23 09:07:32;;;;;;;4.00;1.63;;;;;;;;;;5037534;28;20034;-71
2022/09/23 09:10:08;;;;;;;2.17;1.50;;;;;;;;;;5035224;28;20379;-72
2022/09/23 09:12:42;;;;;;;3.15;1.65;;;;;;;;;;5035278;28;20029;-68
2022/09/23 09:15:13;;;;;;;4.97;1.90;;;;;;;;;;5035343;28;20051;-66
2022/09/23 09:17:54;;;;;;;4.88;1.50;;;;;;;;;;5035208;28;20471;-71
2022/09/23 09:20:44;;;;;;;3.97;1.33;;;;;;;;;;5034673;28;20060;-71
2022/09/23 09:23:37;;;;;;;4.95;1.45;;;;;;;;;;5048042;28;20033;-71
2022/09/23 09:26:05;;;;;;;3.83;1.55;;;;;;;;;;5050493;28;20035;-67
2022/09/23 09:28:39;;;;;;;3.50;1.80;;;;;;;;;;5030886;28;20040;-67
2022/09/23 09:31:28;;;;;;;2.35;1.30;;;;;;;;;;5031364;28;20030;-67
2022/09/23 09:33:58;;;;;;;4.00;1.50;;;;;;;;;;5031223;28;20072;-71
2022/09/23 09:36:46;;;;;;;4.28;1.35;;;;;;;;;;5030998;28;20103;-68
2022/09/23 09:39:13;;;;;;;1.85;1.17;;;;;;;;;;5030861;28;20033;-69
2022/09/23 09:41:52;;;;;;;2.50;1.30;;;;;;;;;;5030775;28;20056;-67
2022/09/23 09:44:24;;;;;;;1.73;1.20;;;;;;;;;;5028713;28;20073;-67
2022/09/23 09:47:28;;;;;;;8.93;1.40;;;;;;;;;;5029249;28;20530;-66
2022/09/23 09:50:03;;;;;;;5.25;1.50;;;;;;;;;;5029255;28;20041;-66
2022/09/23 09:52:30;;;;;;;3.00;1.30;;;;;;;;;;5030460;28;20037;-67
2022/09/23 09:55:26;;;;;;;3.03;1.30;;;;;;;;;;5030716;28;20025;-65
2022/09/23 09:58:00;;;;;;;3.08;1.33;;;;;;;;;;5030683;28;20032;-67
2022/09/23 10:00:26;;;;;;;2.25;1.00;;;;;;;;;;5030228;28;20087;-68
2022/09/23 10:03:29;;;;;;;2.00;1.20;;;;;;;;;;5030602;28;20030;-67
2022/09/23 10:05:56;;;;;;;2.22;1.42;;;;;;;;;;5020720;28;20087;-68
2022/09/23 10:08:34;;;;;;;2.83;1.40;;;;;;;;;;5050972;28;20047;-71
2022/09/23 10:11:00;;;;;;;4.35;1.58;;;;;;;;;;5051901;28;20040;-70
2022/09/23 10:13:29;;;;;;;2.28;1.17;;;;;;;;;;5051981;28;20025;-67
2022/09/23 10:15:56;;;;;;;2.30;1.17;;;;;;;;;;5051955;28;20037;-66
2022/09/23 10:18:38;;;;;;;2.58;1.40;;;;;;;;;;5051598;28;20037;-66
2022/09/23 10:21:09;;;;;;;4.70;1.52;;;;;;;;;;5046773;28;20053;-66
2022/09/23 10:23:40;;;;;;;1.90;1.38;;;;;;;;;;5032162;28;20509;-70
2022/09/23 10:26:07;;;;;;;6.85;1.40;;;;;;;;;;5031654;28;20462;-66
2022/09/23 10:28:49;;;;;;;3.28;2.05;;;;;;;;;;5031500;28;20065;-71
2022/09/23 10:31:27;;;;;;;6.40;2.33;;;;;;;;;;5012245;28;20033;-66
2022/09/23 10:34:01;;;;;;;9.57;2.00;;;;;;;;;;5011841;28;20041;-71
2022/09/23 10:36:31;;;;;;;5.22;1.60;;;;;;;;;;5012072;28;20100;-66
2022/09/23 10:48:04;;;;;;;3.40;1.60;;;;;;;;;;5033354;28;20052;-67
2022/09/23 10:50:47;;;;;;;3.45;1.77;;;;;;;;;;5032973;28;20108;-69
2022/09/23 10:53:35;;;;;;;4.20;1.50;;;;;;;;;;5033107;28;20069;-66
2022/09/23 10:56:08;;;;;;;2.58;1.50;;;;;;;;;;5033076;28;20025;-67
2022/09/23 10:58:59;;;;;;;2.33;1.20;;;;;;;;;;5033584;28;20036;-69
2022/09/23 11:01:38;;;;;;;3.75;1.55;;;;;;;;;;5033078;28;20112;-69
2022/09/23 11:04:22;;;;;;;5.07;1.70;;;;;;;;;;5033163;28;20030;-67
2022/09/23 11:06:56;;;;;;;1.77;1.20;;;;;;;;;;5032872;28;20494;-66
2022/09/23 11:09:28;;;;;;;3.17;1.40;;;;;;;;;;5032836;28;20042;-68
2022/09/23 11:12:12;;;;;;;1.90;1.40;;;;;;;;;;5033110;28;20021;-66
2022/09/23 11:15:00;;;;;;;2.38;1.30;;;;;;;;;;5032989;28;20052;-66
2022/09/23 11:17:43;;;;;;;2.40;1.20;;;;;;;;;;5032879;28;20071;-66
2022/09/23 11:20:22;;;;;;;3.97;1.65;;;;;;;;;;5032390;28;20622;-67
2022/09/23 11:23:17;;;;;;;2.40;1.20;;;;;;;;;;5051474;28;20402;-67
2022/09/23 11:26:47;;;;;;;3.35;1.40;;;;;;;;;;5052764;28;20028;-67
2022/09/23 11:29:12;;;;;;;2.55;1.30;;;;;;;;;;4989036;28;20140;-67
2022/09/23 11:31:59;;;;;;;3.13;1.50;;;;;;;;;;4974846;28;20525;-67
2022/09/23 11:34:41;;;;;;;3.45;1.33;;;;;;;;;;4990939;28;20046;-68
2022/09/23 11:37:17;;;;;;;2.50;1.17;;;;;;;;;;4991084;28;20510;-72
2022/09/23 11:39:56;;;;;;;4.35;1.45;;;;;;;;;;4990987;28;20046;-72
2022/09/23 11:42:30;;;;;;;2.50;1.23;;;;;;;;;;4986953;28;20034;-70
2022/09/23 11:45:13;;;;;;;3.40;1.30;;;;;;;;;;4987152;28;20045;-72
2022/09/23 11:47:47;;;;;;;4.00;1.20;;;;;;;;;;4986414;28;20122;-70
2022/09/23 11:50:19;;;;;;;2.20;1.23;;;;;;;;;;4987045;28;20034;-71
2022/09/23 11:52:55;;;;;;;1.98;1.15;;;;;;;;;;4970496;28;20035;-70
2022/09/23 11:55:30;;;;;;;2.20;1.20;;;;;;;;;;4986378;28;20368;-68
2022/09/23 11:58:02;;;;;;;3.42;1.10;;;;;;;;;;4986945;28;20071;-72
2022/09/23 12:00:33;;;;;;;1.63;1.10;;;;;;;;;;5041050;28;20033;-72
2022/09/23 12:03:23;;;;;;;2.28;1.13;;;;;;;;;;5048193;28;20040;-72
2022/09/23 12:06:31;;;;;;;2.55;0.98;;;;;;;;;;5048278;28;20021;-71
2022/09/23 12:09:07;;;;;;;3.17;1.10;;;;;;;;;;5054938;28;20108;-70
2022/09/23 12:12:17;;;;;;;3.17;1.23;;;;;;;;;;5054720;28;20494;-72
2022/09/23 12:14:48;;;;;;;1.45;0.90;;;;;;;;;;5054855;28;20036;-69
2022/09/23 12:17:20;;;;;;;1.45;0.90;;;;;;;;;;5054774;28;20442;-72
2022/09/23 12:20:12;;;;;;;3.00;1.17;;;;;;;;;;5054616;28;20363;-72
2022/09/23 12:23:03;;;;;;;3.03;1.00;;;;;;;;;;5070799;28;20496;-71
2022/09/23 12:26:01;;;;;;;3.47;1.33;;;;;;;;;;5071429;28;20107;-72
2022/09/23 12:28:47;;;;;;;3.83;1.20;;;;;;;;;;5074700;28;20028;-71
2022/09/23 12:31:16;;;;;;;2.92;1.30;;;;;;;;;;5074859;28;20020;-71
2022/09/23 12:33:53;;;;;;;2.30;1.00;;;;;;;;;;5074309;28;20024;-67
2022/09/23 12:36:28;;;;;;;2.22;1.02;;;;;;;;;;5074479;28;20032;-71
2022/09/23 12:39:06;;;;;;;2.30;1.00;;;;;;;;;;5074662;28;20063;-71
2022/09/23 12:41:37;;;;;;;1.45;1.00;;;;;;;;;;5074269;28;20059;-67
2022/09/23 12:44:14;;;;;;;2.83;1.08;;;;;;;;;;5074675;28;20111;-71
2022/09/23 12:46:44;;;;;;;1.92;1.00;;;;;;;;;;5074423;28;20032;-69
2022/09/23 12:49:45;;;;;;;4.60;1.23;;;;;;;;;;5074636;28;20539;-67
2022/09/23 12:52:11;;;;;;;4.47;1.25;;;;;;;;;;5012142;28;20041;-72
2022/09/23 12:54:40;;;;;;;4.40;1.58;;;;;;;;;;5012317;28;20615;-70
2022/09/23 12:57:10;;;;;;;2.60;1.20;;;;;;;;;;4995905;28;20134;-71
2022/09/23 12:59:53;;;;;;;2.33;1.10;;;;;;;;;;5011987;28;20034;-69
2022/09/23 13:02:34;;;;;;;1.65;1.15;;;;;;;;;;5011863;28;20037;-73
2022/09/23 13:08:14;;;;;;;4.35;1.33;;;;;;;;;;5012184;28;20562;-71
2022/09/23 13:10:42;;;;;;;4.85;1.70;;;;;;;;;;5012240;28;20193;-72
2022/09/23 13:13:32;;;;;;;3.17;1.50;;;;;;;;;;5012200;28;20467;-72
2022/09/23 13:16:18;;;;;;;9.27;1.38;;;;;;;;;;5012095;28;20041;-73
2022/09/23 13:19:05;;;;;;;3.35;1.50;;;;;;;;;;5009020;28;20021;-73
2022/09/23 13:21:46;;;;;;;4.32;1.30;;;;;;;;;;5000609;28;20145;-72
2022/09/23 13:24:11;;;;;;;;;;;;;;;;;;4989888;28;20118;-68
2022/09/23 13:26:37;;;;;;;4.65;1.50;;;;;;;;;;5018150;28;20417;-68
2022/09/23 13:29:05;;;;;;;1.88;1.30;;;;;;;;;;5030885;28;20025;-69
2022/09/23 13:31:30;;;;;;;4.72;2.17;;;;;;;;;;5030595;28;20029;-72
2022/09/23 13:34:04;;;;;;;2.92;1.30;;;;;;;;;;5031158;28;20086;-71
2022/09/23 13:36:41;;;;;;;2.25;1.17;;;;;;;;;;5030983;28;20382;-69
2022/09/23 13:39:23;;;;;;;2.83;1.70;;;;;;;;;;5030903;28;20475;-70
2022/09/23 13:41:52;;;;;;;3.17;1.40;;;;;;;;;;5030760;28;20387;-70
2022/09/23 13:44:19;;;;;;;2.63;1.15;;;;;;;;;;5030575;28;20289;-67
2022/09/23 13:46:56;;;;;;;2.47;1.30;;;;;;;;;;5030821;28;20048;-67
2022/09/23 13:49:35;;;;;;;4.35;1.60;;;;;;;;;;5030556;28;20037;-69
2022/09/23 13:52:01;;;;;;;2.60;1.30;;;;;;;;;;5030775;28;20033;-67
2022/09/23 13:54:27;;;;;;;7.95;1.60;;;;;;;;;;5030464;28;20455;-67
2022/09/23 13:56:54;;;;;;;2.72;1.30;;;;;;;;;;5030913;28;20388;-67
2022/09/23 13:59:24;;;;;;;3.45;1.40;;;;;;;;;;5030245;28;20068;-67
2022/09/23 14:01:50;;;;;;;;;;;;;;;;;;5030938;28;20466;-68
2022/09/23 14:04:23;;;;;;;3.17;1.20;;;;;;;;;;5030521;28;20020;-67
2022/09/23 14:06:49;;;;;;;3.35;1.50;;;;;;;;;;5030137;28;20086;-70
2022/09/23 14:09:14;;;;;;;3.08;1.50;;;;;;;;;;5030344;28;20037;-69
2022/09/23 14:11:40;;;;;;;2.47;1.40;;;;;;;;;;5030223;28;20060;-67
2022/09/23 14:14:06;;;;;;;3.10;1.38;;;;;;;;;;5029919;28;20041;-69
2022/09/23 14:16:35;;;;;;;2.30;1.20;;;;;;;;;;5029936;28;20033;-68
2022/09/23 14:19:01;;;;;;;3.70;1.43;;;;;;;;;;5030173;28;20025;-67
2022/09/23 14:21:35;;;;;;;8.90;1.98;;;;;;;;;;5035766;28;20040;-68
2022/09/23 14:24:15;;;;;;;1.80;1.10;;;;;;;;;;5050104;28;20025;-68
2022/09/23 14:26:43;;;;;;;4.68;1.50;;;;;;;;;;5050058;28;20032;-67
2022/09/23 14:29:18;;;;;;;3.20;1.40;;;;;;;;;;5049279;28;20392;-67
2022/09/23 14:31:55;;;;;;;6.97;2.30;;;;;;;;;;5049517;28;20393;-68
2022/09/23 14:34:42;;;;;;;4.00;1.50;;;;;;;;;;5049742;28;20067;-67
2022/09/23 14:40:03;;;;;;;6.15;1.80;;;;;;;;;;5049642;28;20032;-68
2022/09/23 14:42:36;;;;;;;2.97;1.50;;;;;;;;;;5049294;28;20547;-69
2022/09/23 14:45:03;;;;;;;3.13;1.42;;;;;;;;;;5049663;28;20103;-69
2022/09/23 14:47:32;;;;;;;2.65;1.40;;;;;;;;;;5049422;28;20029;-68
2022/09/23 14:52:51;;;;;;;3.67;1.60;;;;;;;;;;5049586;28;20055;-66
2022/09/23 14:55:17;;;;;;;3.42;1.70;;;;;;;;;;5049331;28;20021;-68
2022/09/23 14:57:44;;;;;;;3.80;1.73;;;;;;;;;;5047594;28;20029;-67
2022/09/23 15:00:17;;;;;;;2.40;1.60;;;;;;;;;;5049304;28;20033;-68
2022/09/23 15:02:56;;;;;;;7.45;1.92;;;;;;;;;;5049188;28;20021;-67
2022/09/23 15:05:30;;;;;;;2.53;1.40;;;;;;;;;;5049146;28;20029;-65
2022/09/23 15:08:00;;;;;;;6.45;1.92;;;;;;;;;;5049196;28;20463;-66
2022/09/23 15:10:28;;;;;;;3.88;1.70;;;;;;;;;;5048528;28;20090;-66
2022/09/23 15:13:03;;;;;;;3.08;1.67;;;;;;;;;;5048535;28;20033;-66
2022/09/23 15:15:29;;;;;;;2.10;1.40;;;;;;;;;;5047735;28;20364;-68
2022/09/23 15:17:55;;;;;;;2.80;1.50;;;;;;;;;;5048999;28;20040;-71
2022/09/23 15:20:25;;;;;;;4.00;1.50;;;;;;;;;;5048594;28;20076;-71
2022/09/23 15:22:53;;;;;;;4.13;1.67;;;;;;;;;;5041225;28;20029;-70